createdAt,value
2022-10-31T00:01:48.210Z,12.15
2022-10-31T00:04:23.131Z,12.18
2022-10-31T00:06:50.491Z,8.95
2022-10-31T00:09:28.003Z,13.05
2022-10-31T00:11:55.143Z,13.15
2022-10-31T00:14:24.723Z,11.77
2022-10-31T00:16:52.073Z,12.98
2022-10-31T00:19:19.351Z,10.05
2022-10-31T00:21:49.476Z,8.30
2022-10-31T00:24:17.681Z,7.03
2022-10-31T00:26:45.009Z,7.88
2022-10-31T00:29:14.903Z,7.80
2022-10-31T00:31:44.876Z,7.18
2022-10-31T00:34:12.067Z,7.85
2022-10-31T00:36:42.048Z,6.07
2022-10-31T00:39:09.129Z,8.15
2022-10-31T00:41:36.589Z,6.82
2022-10-31T00:44:07.206Z,7.47
2022-10-31T00:46:39.048Z,7.78
2022-10-31T00:49:06.239Z,4.38
2022-10-31T00:51:35.042Z,5.88
2022-10-31T00:54:08.480Z,6.03
2022-10-31T00:56:41.304Z,7.25
2022-10-31T00:59:08.467Z,3.10
2022-10-31T01:01:36.498Z,5.55
2022-10-31T01:04:07.059Z,3.92
2022-10-31T01:06:34.423Z,6.88
2022-10-31T01:09:01.451Z,5.25
2022-10-31T01:11:31.981Z,7.38
2022-10-31T01:14:01.080Z,3.75
2022-10-31T01:16:30.625Z,4.20
2022-10-31T01:19:03.179Z,5.50
2022-10-31T01:21:31.060Z,5.93
2022-10-31T01:24:06.995Z,3.35
2022-10-31T01:26:34.845Z,4.63
2022-10-31T01:29:07.999Z,2.40
2022-10-31T01:31:37.837Z,5.28
2022-10-31T01:34:06.083Z,5.47
2022-10-31T01:36:37.996Z,8.65
2022-10-31T01:39:11.089Z,4.35
2022-10-31T01:41:51.998Z,3.40
2022-10-31T01:44:19.065Z,4.43
2022-10-31T01:47:00.575Z,4.93
2022-10-31T01:49:49.290Z,9.20
2022-10-31T01:52:39.722Z,3.35
2022-10-31T01:57:46.709Z,4.70
2022-10-31T02:00:15.247Z,5.28
2022-10-31T02:02:50.183Z,6.75
2022-10-31T02:05:24.778Z,3.53
2022-10-31T02:07:51.725Z,3.83
2022-10-31T02:10:21.629Z,3.42
2022-10-31T02:12:53.795Z,6.78
2022-10-31T02:15:27.053Z,9.05
2022-10-31T02:17:57.798Z,6.82
2022-10-31T02:20:33.223Z,5.32
2022-10-31T02:23:24.952Z,9.93
2022-10-31T02:26:10.111Z,8.75
2022-10-31T02:29:11.260Z,4.57
2022-10-31T02:32:10.342Z,4.80
2022-10-31T02:34:49.214Z,3.95
2022-10-31T02:37:27.338Z,10.23
2022-10-31T02:40:06.530Z,8.40
2022-10-31T02:42:56.927Z,6.13
2022-10-31T02:45:33.654Z,5.57
2022-10-31T02:48:21.216Z,3.33
2022-10-31T02:50:58.181Z,4.47
2022-10-31T02:53:26.102Z,3.03
2022-10-31T02:56:21.599Z,4.70
2022-10-31T02:59:01.851Z,6.85
2022-10-31T03:01:55.059Z,7.43
2022-10-31T03:04:47.234Z,6.60
2022-10-31T03:08:11.171Z,7.03
2022-10-31T03:11:08.119Z,8.23
2022-10-31T03:16:29.473Z,5.88
2022-10-31T03:19:04.059Z,9.90
2022-10-31T03:21:41.239Z,13.93
2022-10-31T03:24:14.490Z,13.57
2022-10-31T03:27:05.247Z,8.55
2022-10-31T03:29:36.624Z,7.38
2022-10-31T03:32:25.766Z,7.70
2022-10-31T03:34:58.701Z,8.00
2022-10-31T03:37:29.007Z,7.45
2022-10-31T03:40:01.922Z,4.35
2022-10-31T03:42:43.640Z,5.30
2022-10-31T03:45:22.968Z,4.13
2022-10-31T03:47:50.326Z,4.80
2022-10-31T03:50:19.294Z,8.38
2022-10-31T03:52:55.066Z,8.88
2022-10-31T03:55:43.005Z,6.50
2022-10-31T03:58:30.162Z,5.60
2022-10-31T04:01:01.334Z,7.43
2022-10-31T04:03:36.251Z,10.93
2022-10-31T04:06:10.578Z,6.70
2022-10-31T04:08:49.493Z,4.80
2022-10-31T04:11:23.456Z,5.13
2022-10-31T04:13:54.704Z,8.63
2022-10-31T04:16:24.483Z,5.55
2022-10-31T04:18:52.284Z,8.52
2022-10-31T04:21:27.694Z,5.30
2022-10-31T04:23:57.928Z,5.38
2022-10-31T04:26:36.770Z,5.10
2022-10-31T04:29:05.740Z,4.60
2022-10-31T04:31:40.205Z,4.72
2022-10-31T04:34:08.945Z,6.70
2022-10-31T04:36:36.143Z,7.15
2022-10-31T04:39:03.665Z,6.63
2022-10-31T04:41:36.226Z,5.53
2022-10-31T04:44:10.961Z,8.80
2022-10-31T04:46:38.405Z,4.80
2022-10-31T04:49:06.262Z,5.70
2022-10-31T04:51:33.384Z,6.78
2022-10-31T04:54:00.611Z,5.93
2022-10-31T04:56:28.332Z,7.03
2022-10-31T04:58:55.786Z,8.50
2022-10-31T05:01:27.578Z,11.23
2022-10-31T05:03:57.627Z,10.50
2022-10-31T05:06:29.366Z,6.13
2022-10-31T05:08:56.959Z,8.45
2022-10-31T05:11:26.999Z,8.43
2022-10-31T05:14:05.934Z,7.30
2022-10-31T05:16:33.707Z,7.80
2022-10-31T05:19:03.652Z,8.05
2022-10-31T05:22:02.686Z,5.88
2022-10-31T05:24:28.032Z,7.50
2022-10-31T05:27:09.429Z,6.10
2022-10-31T05:32:15.521Z,5.80
2022-10-31T05:34:49.131Z,7.68
2022-10-31T05:37:24.284Z,8.80
2022-10-31T05:39:51.279Z,7.07
2022-10-31T05:42:18.627Z,11.27
2022-10-31T05:47:39.539Z,11.43
2022-10-31T05:50:11.182Z,10.63
2022-10-31T05:52:42.767Z,8.95
2022-10-31T05:55:13.423Z,7.43
2022-10-31T05:57:40.757Z,7.68
2022-10-31T06:00:11.951Z,6.32
2022-10-31T06:02:43.546Z,5.30
2022-10-31T06:05:12.099Z,6.85
2022-10-31T06:07:43.044Z,6.15
2022-10-31T06:10:11.128Z,7.30
2022-10-31T06:12:48.092Z,7.20
2022-10-31T06:15:37.183Z,11.80
2022-10-31T06:18:07.104Z,8.80
2022-10-31T06:20:40.784Z,10.70
2022-10-31T06:23:13.708Z,9.23
2022-10-31T06:25:45.060Z,5.55
2022-10-31T06:28:15.575Z,6.68
2022-10-31T06:30:51.426Z,5.50
2022-10-31T06:33:25.315Z,11.07
2022-10-31T06:36:03.947Z,7.45
2022-10-31T06:38:41.910Z,5.57
2022-10-31T06:41:09.709Z,6.97
2022-10-31T06:44:08.914Z,7.93
2022-10-31T06:46:31.715Z,6.32
2022-10-31T06:48:59.375Z,12.77
2022-10-31T06:51:32.260Z,9.85
2022-10-31T06:54:14.358Z,10.35
2022-10-31T06:56:43.686Z,6.40
2022-10-31T06:59:14.454Z,6.70
2022-10-31T07:01:42.419Z,12.15
2022-10-31T07:04:16.893Z,6.82
2022-10-31T07:13:10.587Z,7.15
2022-10-31T07:18:51.987Z,7.07
2022-10-31T07:21:22.457Z,9.95
2022-10-31T07:27:13.947Z,6.43
2022-10-31T07:29:41.585Z,8.45
2022-10-31T07:32:16.746Z,7.47
2022-10-31T07:35:10.831Z,8.25
2022-10-31T07:37:50.072Z,10.50
2022-10-31T07:40:52.443Z,10.57
2022-10-31T07:44:22.545Z,8.35
2022-10-31T07:46:46.175Z,10.43
2022-10-31T07:49:27.353Z,6.78
2022-10-31T07:52:36.807Z,8.95
2022-10-31T07:59:22.504Z,6.00
2022-10-31T08:02:12.134Z,6.60
2022-10-31T08:05:04.711Z,7.07
2022-10-31T08:07:38.684Z,4.15
2022-10-31T08:10:28.732Z,8.35
2022-10-31T08:13:08.462Z,7.47
2022-10-31T08:15:45.887Z,6.60
2022-10-31T08:18:30.400Z,5.78
2022-10-31T08:21:01.756Z,5.70
2022-10-31T08:23:33.856Z,7.05
2022-10-31T08:26:04.076Z,6.50
2022-10-31T08:28:39.817Z,5.78
2022-10-31T08:31:14.020Z,4.40
2022-10-31T08:33:57.062Z,6.15
2022-10-31T08:36:24.430Z,3.90
2022-10-31T08:39:03.956Z,6.82
2022-10-31T08:45:29.612Z,2.20
2022-10-31T08:48:29.610Z,5.82
2022-10-31T08:51:08.099Z,3.53
2022-10-31T08:53:39.250Z,2.88
2022-10-31T08:56:18.499Z,4.07
2022-10-31T08:58:50.152Z,4.07
2022-10-31T09:01:20.746Z,5.20
2022-10-31T09:04:10.493Z,3.67
2022-10-31T09:07:19.749Z,4.78
2022-10-31T09:09:50.478Z,4.13
2022-10-31T09:12:32.636Z,5.03
2022-10-31T09:15:20.972Z,5.85
2022-10-31T09:20:51.633Z,2.95
2022-10-31T09:23:24.570Z,3.05
2022-10-31T09:26:33.782Z,3.03
2022-10-31T09:29:41.962Z,4.75
2022-10-31T09:32:17.523Z,6.10
2022-10-31T09:37:43.574Z,4.85
2022-10-31T09:43:55.851Z,3.88
2022-10-31T09:47:09.034Z,5.88
2022-10-31T09:50:17.600Z,3.88
2022-10-31T09:53:03.779Z,3.40
2022-10-31T09:55:53.895Z,4.75
2022-10-31T09:59:21.398Z,4.10
2022-10-31T10:01:46.097Z,3.40
2022-10-31T10:05:06.387Z,3.40
2022-10-31T10:07:53.906Z,4.78
2022-10-31T10:10:49.456Z,5.13
2022-10-31T10:14:21.086Z,5.35
2022-10-31T10:17:22.349Z,4.43
2022-10-31T10:19:53.993Z,3.10
2022-10-31T10:22:42.165Z,7.93
2022-10-31T10:25:22.008Z,3.35
2022-10-31T10:28:41.256Z,6.63
2022-10-31T10:31:56.484Z,4.13
2022-10-31T10:35:04.789Z,5.35
2022-10-31T10:37:48.624Z,4.80
2022-10-31T10:43:35.657Z,3.17
2022-10-31T10:46:36.571Z,4.43
2022-10-31T10:49:10.059Z,7.85
2022-10-31T10:55:30.124Z,5.50
2022-10-31T10:58:27.999Z,5.30
2022-10-31T11:01:02.296Z,3.38
2022-10-31T11:03:40.754Z,4.68
2022-10-31T11:06:27.219Z,5.85
2022-10-31T11:09:00.549Z,6.32
2022-10-31T11:11:35.434Z,6.78
2022-10-31T11:14:21.278Z,4.50
2022-10-31T11:17:23.120Z,7.53
2022-10-31T11:20:19.039Z,7.95
2022-10-31T11:23:53.458Z,3.83
2022-10-31T11:26:20.520Z,5.43
2022-10-31T11:29:20.020Z,3.17
2022-10-31T11:32:06.091Z,5.60
2022-10-31T11:34:56.670Z,6.50
2022-10-31T11:37:32.234Z,8.13
2022-10-31T11:40:22.447Z,4.32
2022-10-31T11:43:00.742Z,3.20
2022-10-31T11:45:39.479Z,6.80
2022-10-31T11:48:19.820Z,3.97
2022-10-31T11:51:43.401Z,3.75
2022-10-31T11:57:54.750Z,4.82
2022-10-31T12:00:26.272Z,3.90
2022-10-31T12:04:03.488Z,5.40
2022-10-31T12:06:55.023Z,4.05
2022-10-31T12:09:47.959Z,4.47
2022-10-31T12:14:07.080Z,4.68
2022-10-31T12:17:08.185Z,5.75
2022-10-31T12:19:53.919Z,5.10
2022-10-31T12:25:32.613Z,8.07
2022-10-31T12:28:41.359Z,5.95
2022-10-31T12:31:48.761Z,4.43
2022-10-31T12:34:51.789Z,4.75
2022-10-31T12:37:58.198Z,6.85
2022-10-31T12:40:41.235Z,2.60
2022-10-31T12:43:35.134Z,6.05
2022-10-31T12:46:31.279Z,5.65
2022-10-31T12:49:53.127Z,4.30
2022-10-31T12:52:47.653Z,2.92
2022-10-31T12:55:49.383Z,4.43
2022-10-31T12:58:34.761Z,2.70
2022-10-31T13:01:33.662Z,4.30
2022-10-31T13:04:49.540Z,2.47
2022-10-31T13:07:47.454Z,3.90
2022-10-31T13:11:25.012Z,3.90
2022-10-31T13:14:19.506Z,2.20
2022-10-31T13:17:11.964Z,3.78
2022-10-31T13:19:53.983Z,3.35
2022-10-31T13:22:28.179Z,3.67
2022-10-31T13:25:26.870Z,4.43
2022-10-31T13:28:03.438Z,4.07
2022-10-31T13:30:35.963Z,3.67
2022-10-31T13:33:29.946Z,6.75
2022-10-31T13:36:06.622Z,2.92
2022-10-31T13:39:02.787Z,5.78
2022-10-31T13:41:56.702Z,3.92
2022-10-31T13:44:40.759Z,7.32
2022-10-31T13:50:20.402Z,5.03
2022-10-31T13:53:14.253Z,6.22
2022-10-31T13:55:57.889Z,4.60
2022-10-31T13:58:31.176Z,3.42
2022-10-31T14:01:30.432Z,4.35
2022-10-31T14:04:14.881Z,6.47
2022-10-31T14:06:59.038Z,9.65
2022-10-31T14:09:33.803Z,6.00
2022-10-31T14:15:22.440Z,4.95
2022-10-31T14:20:48.062Z,4.10
2022-10-31T14:23:44.643Z,5.85
2022-10-31T14:26:27.659Z,4.32
2022-10-31T14:29:20.714Z,5.05
2022-10-31T14:32:13.869Z,9.15
2022-10-31T14:34:55.971Z,5.22
2022-10-31T14:37:57.098Z,10.05
2022-10-31T14:43:51.251Z,9.82
2022-10-31T14:50:06.046Z,15.48
2022-10-31T14:52:41.229Z,19.90
2022-10-31T14:55:20.046Z,20.95
2022-10-31T14:58:32.110Z,25.95
2022-10-31T15:01:59.522Z,23.02
2022-10-31T15:09:23.127Z,19.23
2022-10-31T15:12:08.159Z,16.92
2022-10-31T15:14:40.054Z,15.95
2022-10-31T15:17:19.799Z,16.42
2022-10-31T15:20:03.336Z,13.20
2022-10-31T15:22:40.220Z,17.83
2022-10-31T15:25:33.055Z,12.20
2022-10-31T15:28:30.092Z,16.55
2022-10-31T15:31:09.870Z,13.57
2022-10-31T15:33:48.387Z,11.52
2022-10-31T15:36:38.672Z,12.25
2022-10-31T15:39:38.802Z,17.95
2022-10-31T15:48:53.681Z,12.60
2022-10-31T15:56:07.316Z,15.32
2022-10-31T15:59:05.627Z,15.23
2022-10-31T16:01:48.148Z,21.27
2022-10-31T16:05:47.809Z,18.50
2022-10-31T16:08:36.912Z,18.45
2022-10-31T16:11:48.054Z,20.35
2022-10-31T16:14:36.248Z,22.58
2022-10-31T16:17:24.816Z,23.85
2022-10-31T16:20:00.957Z,23.25
2022-10-31T16:26:00.079Z,19.75
2022-10-31T16:28:43.203Z,24.88
2022-10-31T16:31:42.523Z,28.75
2022-10-31T16:34:26.875Z,25.40
2022-10-31T16:37:45.432Z,16.83
2022-10-31T16:43:29.993Z,22.58
2022-10-31T16:46:30.566Z,16.50
2022-10-31T16:49:06.922Z,16.27
2022-10-31T16:56:17.768Z,21.30
2022-10-31T17:02:12.230Z,20.23
2022-10-31T17:05:00.761Z,19.13
2022-10-31T17:07:49.399Z,16.77
2022-10-31T17:10:19.304Z,15.27
2022-10-31T17:13:09.858Z,17.60
2022-10-31T17:15:52.225Z,15.38
2022-10-31T17:24:59.457Z,19.73
2022-10-31T17:28:00.103Z,24.58
2022-10-31T17:30:52.916Z,23.50
2022-10-31T17:43:35.265Z,18.13
2022-10-31T17:46:47.119Z,23.17
2022-10-31T17:52:42.288Z,21.73
2022-10-31T17:55:48.467Z,17.20
2022-10-31T17:59:32.127Z,17.83
2022-10-31T18:02:10.469Z,17.63
2022-10-31T18:08:43.445Z,15.10
2022-10-31T18:14:48.138Z,15.88
2022-10-31T18:17:35.820Z,20.75
2022-10-31T18:20:47.599Z,13.45
2022-10-31T18:23:18.872Z,17.33
2022-10-31T18:26:15.895Z,17.13
2022-10-31T18:32:06.792Z,15.38
2022-10-31T18:34:57.129Z,14.52
2022-10-31T18:37:39.146Z,16.27
2022-10-31T18:40:15.227Z,15.65
2022-10-31T18:42:45.758Z,14.18
2022-10-31T18:45:45.816Z,13.23
2022-10-31T18:48:14.642Z,10.85
2022-10-31T18:50:42.773Z,10.15
2022-10-31T18:53:16.398Z,12.50
2022-10-31T18:55:47.434Z,14.90
2022-10-31T18:58:27.076Z,14.75
2022-10-31T19:00:57.468Z,13.77
2022-10-31T19:03:37.484Z,11.27
2022-10-31T19:06:15.192Z,10.73
2022-10-31T19:08:50.322Z,9.88
2022-10-31T19:11:22.007Z,13.23
2022-10-31T19:14:08.965Z,8.82
2022-10-31T19:16:58.308Z,9.32
2022-10-31T19:19:41.430Z,11.65
2022-10-31T19:22:51.529Z,9.70
2022-10-31T19:25:39.543Z,10.50
2022-10-31T19:28:07.398Z,14.25
2022-10-31T19:30:37.959Z,11.55
2022-10-31T19:33:10.880Z,10.75
2022-10-31T19:36:20.374Z,16.02
2022-10-31T19:38:53.068Z,15.35
2022-10-31T19:41:44.085Z,12.90
2022-10-31T19:44:27.776Z,10.02
2022-10-31T19:46:58.249Z,10.40
2022-10-31T19:49:35.778Z,12.70
2022-10-31T19:52:06.454Z,15.63
2022-10-31T19:54:45.483Z,11.48
2022-10-31T20:00:12.601Z,12.63
2022-10-31T20:02:50.545Z,10.65
2022-10-31T20:05:19.765Z,15.45
2022-10-31T20:07:55.014Z,15.63
2022-10-31T20:10:29.611Z,15.10
2022-10-31T20:13:04.506Z,15.52
2022-10-31T20:15:40.911Z,17.63
2022-10-31T20:18:25.815Z,11.63
2022-10-31T20:21:12.692Z,12.57
2022-10-31T20:23:43.034Z,11.77
2022-10-31T20:26:53.322Z,14.13
2022-10-31T20:29:28.969Z,17.40
2022-10-31T20:32:02.297Z,12.88
2022-10-31T20:34:30.269Z,11.40
2022-10-31T20:37:07.455Z,12.23
2022-10-31T20:39:54.159Z,10.23
2022-10-31T20:42:41.452Z,13.55
2022-10-31T20:45:14.511Z,14.38
2022-10-31T20:48:10.792Z,12.35
2022-10-31T20:50:44.158Z,9.07
2022-10-31T20:53:15.062Z,12.23
2022-10-31T20:56:02.759Z,7.97
2022-10-31T20:58:43.799Z,6.97
2022-10-31T21:06:48.276Z,10.70
2022-10-31T21:09:25.937Z,10.95
2022-10-31T21:12:25.468Z,12.05
2022-10-31T21:15:22.751Z,10.32
2022-10-31T21:17:55.746Z,10.20
2022-10-31T21:20:31.492Z,9.93
2022-10-31T21:23:23.246Z,10.02
2022-10-31T21:25:56.863Z,12.05
2022-10-31T21:28:46.086Z,8.95
2022-10-31T21:31:19.056Z,5.65
2022-10-31T21:33:49.445Z,10.05
2022-10-31T21:36:20.436Z,6.05
2022-10-31T21:38:58.496Z,9.43
2022-10-31T21:43:57.303Z,11.25
2022-10-31T21:46:30.431Z,9.77
2022-10-31T21:49:02.419Z,11.27
2022-10-31T21:54:21.236Z,12.77
2022-10-31T21:57:02.971Z,8.95
2022-10-31T21:59:31.704Z,10.05
2022-10-31T22:02:02.925Z,9.63
2022-10-31T22:04:52.317Z,9.30
2022-10-31T22:07:25.044Z,10.57
2022-10-31T22:09:52.862Z,11.82
2022-10-31T22:12:20.419Z,11.13
2022-10-31T22:14:53.288Z,13.82
2022-10-31T22:17:33.427Z,9.63
2022-10-31T22:20:01.193Z,14.77
2022-10-31T22:22:29.059Z,12.07
2022-10-31T22:24:59.713Z,11.30
2022-10-31T22:27:27.235Z,13.45
2022-10-31T22:29:59.871Z,10.60
2022-10-31T22:32:30.762Z,9.20
2022-10-31T22:34:59.882Z,8.68
2022-10-31T22:37:52.311Z,10.55
2022-10-31T22:40:40.167Z,9.00
2022-10-31T22:43:07.304Z,9.52
2022-10-31T22:45:37.584Z,8.15
2022-10-31T22:48:10.456Z,8.88
2022-10-31T22:50:47.374Z,10.75
2022-10-31T22:53:16.398Z,8.50
2022-10-31T22:55:47.945Z,10.55
2022-10-31T22:58:30.001Z,9.20
2022-10-31T23:01:17.886Z,9.43
2022-10-31T23:03:45.943Z,11.35
2022-10-31T23:06:15.755Z,11.15
2022-10-31T23:08:43.669Z,9.07
2022-10-31T23:11:36.148Z,9.85
2022-10-31T23:14:12.331Z,9.85
2022-10-31T23:17:05.287Z,13.48
2022-10-31T23:19:42.292Z,8.50
2022-10-31T23:22:09.624Z,9.07
2022-10-31T23:24:45.477Z,8.57
2022-10-31T23:27:32.480Z,9.82
2022-10-31T23:30:02.704Z,10.75
2022-10-31T23:32:38.792Z,9.82
2022-10-31T23:35:11.889Z,11.27
2022-10-31T23:37:43.913Z,12.25
2022-10-31T23:40:16.483Z,7.70
2022-10-31T23:42:47.167Z,7.70
2022-10-31T23:45:27.449Z,11.15
2022-10-31T23:47:57.283Z,6.95
2022-10-31T23:50:28.912Z,11.35
2022-10-31T23:52:56.322Z,10.45
2022-10-31T23:55:29.403Z,9.65
2022-10-31T23:58:00.926Z,9.20
